• Join FlightAware (Why Join?)
  • Login
  • US Flag 
11:59PM EDT


 

Airport Tracker/Info


-or-


 

Live Flight TrackerFlight Track Log ✈ N983CA ✈ 18-Apr-2013 ✈ KBUR - KSFO

Flight Track Log - Related Links

Times and Time Zones

All times are in EDT time to prevent confusion due to time zone crossing. See the N983CA flight status page for this flight to view local times or setup timezone preferences in your user account.

Time Position Orientation Groundspeed Altitude Reporting Facility
EDT Latitude Longitude Course Direction KTS MPH feet Rate Location/Type
01:00PM 34.1425 -118.4156 232° Southwest 219 252 5,400  Level Los Angeles Center
01:01PM 34.3177 -118.6101 335° Northwest  Level FlightAware Approximate
01:01PM 34.1844 -118.4678 314° West 228 262 8,700  Level Los Angeles Center
01:02PM 34.4085 -118.6620 335° Northwest  Level FlightAware Approximate
01:02PM 34.2456 -118.5106 330° Northwest 248 285 11,100  Level Los Angeles Center
01:03PM 34.5011 -118.7089 338° Northwest  Level FlightAware Approximate
01:03PM 34.3133 -118.5544 332° Northwest 270 311 13,600  Level Los Angeles Center
01:04PM 34.5942 -118.7543 342° North  Level FlightAware Approximate
01:04PM 34.3986 -118.6058 334° Northwest 285 328 15,200  Level Los Angeles Center
01:05PM 34.4778 -118.6558 332° Northwest 321 369 16,700 1,320 Climbing Los Angeles Center
01:06PM 34.5606 -118.7075 333° Northwest 336 387 18,000 1,500 Climbing Los Angeles Center
01:07PM 34.6558 -118.7697 332° Northwest 346 398 19,800 1,380 Climbing Los Angeles Center
01:08PM 34.7306 -118.8167 333° Northwest 348 400 20,900 1,080 Climbing Los Angeles Center
01:09PM 34.8175 -118.8731 332° Northwest 351 404 22,100 1,200 Climbing Los Angeles Center
01:10PM 34.9164 -118.9547 326° Northwest 356 410 23,400 1,320 Climbing Los Angeles Center
01:11PM 34.9992 -119.0244 325° Northwest 361 415 24,900 960 Climbing Los Angeles Center
01:12PM 35.0822 -119.0942 326° Northwest 366 421 25,400 480 Climbing Los Angeles Center
01:13PM 35.1364 -119.2042 301° West 388 447 26,000 660 Climbing Los Angeles Center
01:14PM 35.1908 -119.3158 301° West 384 442 26,800 780 Climbing Los Angeles Center
01:15PM 35.2556 -119.4494 301° West 385 443 27,700 540 Climbing Los Angeles Center
01:16PM 35.3119 -119.5619 302° West 387 445 28,000 120 Climbing Los Angeles Center
01:17PM 35.3683 -119.6803 300° West 403 464 28,000  Level Los Angeles Center
01:18PM 35.4011 -119.7489 300° West 407 468 28,000 -120 Level Oakland Center
01:19PM 35.4597 -119.8708 301° West 418 481 27,900  Descending Oakland Center
01:20PM 35.5189 -119.9936 301° West 422 486 28,000  Climbing Oakland Center
01:21PM 35.5881 -120.1411 300° West 423 487 28,000  Level Oakland Center
01:22PM 35.6458 -120.2633 300° West 422 486 28,000  Level Oakland Center
01:23PM 35.7017 -120.3875 299° West 421 484 28,000  Level Oakland Center
01:24PM 35.7542 -120.5161 297° West 425 489 28,000  Level Oakland Center
01:25PM 35.8303 -120.6219 312° West 418 481 28,000  Level Oakland Center
01:26PM 35.9064 -120.7283 311° West 415 478 28,000 -60 Level Oakland Center
01:27PM 35.9956 -120.8583 310° West 415 478 27,900  Descending Oakland Center
01:28PM 36.0714 -120.9669 311° West 416 479 28,000  Climbing Oakland Center
01:29PM 36.1461 -121.0761 310° West 417 480 28,000  Level Oakland Center
01:30PM 36.2208 -121.1839 311° West 415 478 28,000  Level Oakland Center
01:31PM 36.2956 -121.2936 310° West 418 481 28,000 -60 Level Oakland Center
01:32PM 36.3694 -121.4050 310° West 418 481 27,900  Descending Oakland Center
01:33PM 36.4442 -121.5156 310° West 418 481 28,000 -420 Climbing Oakland Center
01:34PM 36.5186 -121.6283 309° West 422 486 27,100 -2,280 Descending Oakland Center
01:35PM 36.6000 -121.7500 310° West 398 458 23,600 -3,300 Descending Northern Cal TRACON
01:36PM 36.6667 -121.8333 315° West 410 472 21,000 -3,000 Descending Northern Cal TRACON
01:37PM 36.7333 -121.9500 306° West 388 447 18,000 -2,880 Descending Northern Cal TRACON
01:38PM 36.8333 -121.9833 345° North 366 421 15,300 -2,880 Descending Northern Cal TRACON
01:39PM 36.9333 -122.0167 345° North 367 422 12,300 -3,120 Descending Northern Cal TRACON
01:39PM 36.9553 -122.0192 355° North 362 417 11,400 -1,860 Descending Oakland Center
01:40PM 37.0453 -122.0408 349° North 333 383 9,900 -780 Descending Oakland Center
01:41PM 37.1203 -122.0614 348° North 280 322 9,900 -300 Level Oakland Center
01:42PM 37.1892 -122.0800 348° North 258 297 9,300 -1,020 Descending Oakland Center
01:43PM 37.2572 -122.0986 348° North 251 289 7,900 -1,620 Descending Oakland Center
01:44PM 37.3222 -122.1164 348° North 241 277 6,100 -1,080 Descending Oakland Center
01:45PM 37.3883 -122.1319 349° North 242 278 5,700 -480 Descending Oakland Center
01:46PM 37.4444 -122.1461 349° North 216 249 5,200 -840 Descending Oakland Center
01:47PM 37.5061 -122.1667 345° North 195 224 4,000 -1,140 Descending Oakland Center
01:48PM 37.5447 -122.2044 322° Northwest 184 212 2,900 -1,080 Descending Oakland Center